Aérodrome :
LOGIN :

S'inscrire | Disclaimer

   EN    FR    IT 

 










Légende :    VFR   VFR Marginal   IFR   IFR Intensif   IFR Très Intensif
Visi : 
Plafond : 
>= 8 km
>= 3000ft
5 à 8 km
1000 à 3000 ft
1500m à 5 km
500 à 1000 ft
800 à 1500m
200 à 500 ft
< 800m
< 200 ft
Symboles :   Orages  Brouillard  Fortes neiges  Fortes précipitations  Vent > 20 kt
SIGMETs :   Divers  Orages  Givrage  Turbulence  Onde Orograph.  Cendres Volcan.






- Altitude de l'aérodrome : 359 ft
- Code IATA : BVA


LFOB - Beauvais

DERNIER METAR :
  • 182300Z AUTO 00000KT CAVOK 17/14 Q1019 NOSIG

METARs EXPIRÉS :
  • 182230Z AUTO 00000KT CAVOK 18/15 Q1019 NOSIG
  • 182200Z AUTO 00000KT CAVOK 19/15 Q1019 NOSIG
  • 182130Z AUTO 06001KT CAVOK 20/15 Q1020 NOSIG
  • 182100Z AUTO 05005KT 030V100 CAVOK 20/15 Q1020 NOSIG
  • 182030Z AUTO 05008KT CAVOK 20/15 Q1019 NOSIG
  • 182000Z AUTO 05007KT CAVOK 21/15 Q1019 NOSIG
  • 181930Z AUTO 05006KT CAVOK 22/15 Q1019 NOSIG
  • 181900Z AUTO 06006KT 030V100 CAVOK 25/15 Q1019 NOSIG
  • 181830Z AUTO 09004KT 070V130 CAVOK 26/15 Q1019 NOSIG

TAF TAF LFOB
Valide du 19 à 00h jusqu'au 20 à 00h UTC


182300Z 1900/1924 VRB02KT CAVOK
ATIS : +33 3 44 11 49 28



MET'MAP, la Météo Aéronautique d'un coup d'oeil ! - Copyright ORBIFLY Décembre 2007 - Disclaimer

ORBIFLY MET'MAP TEAM :

Programmation & Développement : Alexandra Zaïnal
Sur une idée originale de : Baudouin d'Aumeries
Soutien technique & logistique : Manuel Goepfert
Assistance : Marc-Olivier Méhu




SOURCES & CREDITS :

   NOAA